sensor_id;sensor_type;location;lat;lon;timestamp;pressure;altitude;pressure_sealevel;temperature;humidity
12172;BME280;6149;52.418;13.668;2023-01-31T00:00:22;100867.59;;;3.28;100.00
12172;BME280;6149;52.418;13.668;2023-01-31T00:02:49;100865.72;;;3.35;100.00
12172;BME280;6149;52.418;13.668;2023-01-31T00:05:15;100865.84;;;3.29;100.00
12172;BME280;6149;52.418;13.668;2023-01-31T00:07:44;100867.56;;;3.30;100.00
12172;BME280;6149;52.418;13.668;2023-01-31T00:10:10;100874.63;;;3.26;99.78
12172;BME280;6149;52.418;13.668;2023-01-31T00:12:38;100872.03;;;3.25;100.00
12172;BME280;6149;52.418;13.668;2023-01-31T00:15:05;100877.09;;;3.34;99.79
12172;BME280;6149;52.418;13.668;2023-01-31T00:17:33;100884.16;;;3.29;100.00
12172;BME280;6149;52.418;13.668;2023-01-31T00:19:59;100874.75;;;3.19;100.00
12172;BME280;6149;52.418;13.668;2023-01-31T00:22:26;100890.50;;;3.14;100.00
12172;BME280;6149;52.418;13.668;2023-01-31T00:24:52;100889.69;;;3.11;100.00
12172;BME280;6149;52.418;13.668;2023-01-31T00:27:19;100895.81;;;3.10;100.00
12172;BME280;6149;52.418;13.668;2023-01-31T00:29:46;100899.16;;;3.18;100.00
12172;BME280;6149;52.418;13.668;2023-01-31T00:32:13;100899.22;;;3.13;100.00
12172;BME280;6149;52.418;13.668;2023-01-31T00:34:39;100906.19;;;3.14;100.00
12172;BME280;6149;52.418;13.668;2023-01-31T00:37:06;100897.41;;;3.18;100.00
12172;BME280;6149;52.418;13.668;2023-01-31T00:39:34;100906.06;;;3.22;100.00
12172;BME280;6149;52.418;13.668;2023-01-31T00:42:00;100916.59;;;3.16;100.00
12172;BME280;6149;52.418;13.668;2023-01-31T00:44:27;100918.28;;;3.20;100.00
12172;BME280;6149;52.418;13.668;2023-01-31T00:46:55;100913.84;;;3.23;100.00
12172;BME280;6149;52.418;13.668;2023-01-31T00:49:21;100923.56;;;3.17;100.00
12172;BME280;6149;52.418;13.668;2023-01-31T00:51:48;100925.91;;;3.32;100.00
12172;BME280;6149;52.418;13.668;2023-01-31T00:54:14;100917.97;;;3.35;100.00
12172;BME280;6149;52.418;13.668;2023-01-31T00:56:41;100924.22;;;3.28;100.00
12172;BME280;6149;52.418;13.668;2023-01-31T00:59:09;100926.59;;;3.40;98.78
12172;BME280;6149;52.418;13.668;2023-01-31T01:01:36;100930.91;;;3.43;99.73
12172;BME280;6149;52.418;13.668;2023-01-31T01:04:05;100929.25;;;3.37;100.00
12172;BME280;6149;52.418;13.668;2023-01-31T01:06:32;100944.03;;;3.40;100.00
12172;BME280;6149;52.418;13.668;2023-01-31T01:08:59;100949.28;;;3.38;100.00
12172;BME280;6149;52.418;13.668;2023-01-31T01:11:27;100948.25;;;3.47;99.36
12172;BME280;6149;52.418;13.668;2023-01-31T01:13:54;100943.88;;;3.49;100.00
12172;BME280;6149;52.418;13.668;2023-01-31T01:16:23;100957.13;;;3.38;99.70
12172;BME280;6149;52.418;13.668;2023-01-31T01:18:52;100966.56;;;3.47;99.82
12172;BME280;6149;52.418;13.668;2023-01-31T01:21:22;100958.56;;;3.56;98.65
12172;BME280;6149;52.418;13.668;2023-01-31T01:23:51;100960.19;;;3.61;98.64
12172;BME280;6149;52.418;13.668;2023-01-31T01:26:20;100953.31;;;3.56;98.28
12172;BME280;6149;52.418;13.668;2023-01-31T01:28:50;100950.66;;;3.59;98.21
12172;BME280;6149;52.418;13.668;2023-01-31T01:31:18;100962.06;;;3.55;99.75
12172;BME280;6149;52.418;13.668;2023-01-31T01:33:47;100960.25;;;3.58;98.92
12172;BME280;6149;52.418;13.668;2023-01-31T01:36:16;100960.13;;;3.64;98.25
12172;BME280;6149;52.418;13.668;2023-01-31T01:38:47;100964.59;;;3.59;98.31
12172;BME280;6149;52.418;13.668;2023-01-31T01:41:15;100968.09;;;3.58;98.62
12172;BME280;6149;52.418;13.668;2023-01-31T01:43:45;100964.50;;;3.64;96.34
12172;BME280;6149;52.418;13.668;2023-01-31T01:46:15;100956.50;;;3.72;97.16
12172;BME280;6149;52.418;13.668;2023-01-31T01:48:45;100985.38;;;3.67;97.11
12172;BME280;6149;52.418;13.668;2023-01-31T01:51:17;100978.34;;;3.69;96.68
12172;BME280;6149;52.418;13.668;2023-01-31T01:53:50;100979.97;;;3.75;97.53
12172;BME280;6149;52.418;13.668;2023-01-31T01:56:21;100991.41;;;3.71;97.70
12172;BME280;6149;52.418;13.668;2023-01-31T01:58:55;100993.94;;;3.74;96.27
12172;BME280;6149;52.418;13.668;2023-01-31T02:01:28;100988.91;;;3.64;98.03
12172;BME280;6149;52.418;13.668;2023-01-31T02:03:56;100994.97;;;3.66;97.09
12172;BME280;6149;52.418;13.668;2023-01-31T02:06:25;100990.53;;;3.70;95.93
12172;BME280;6149;52.418;13.668;2023-01-31T02:08:53;101009.66;;;3.72;96.01
12172;BME280;6149;52.418;13.668;2023-01-31T02:11:21;101004.56;;;3.66;95.97
12172;BME280;6149;52.418;13.668;2023-01-31T02:13:52;101002.84;;;3.65;96.61
12172;BME280;6149;52.418;13.668;2023-01-31T02:16:26;101021.25;;;3.59;95.97
12172;BME280;6149;52.418;13.668;2023-01-31T02:18:53;101015.22;;;3.54;97.28
12172;BME280;6149;52.418;13.668;2023-01-31T02:22:02;101017.94;;;3.48;97.79
12172;BME280;6149;52.418;13.668;2023-01-31T02:25:00;101020.31;;;3.63;97.71
12172;BME280;6149;52.418;13.668;2023-01-31T02:28:10;101030.97;;;3.51;98.83
12172;BME280;6149;52.418;13.668;2023-01-31T02:31:25;101022.25;;;3.52;98.76
12172;BME280;6149;52.418;13.668;2023-01-31T02:34:13;101038.75;;;3.54;98.21
12172;BME280;6149;52.418;13.668;2023-01-31T02:36:57;101036.97;;;3.57;98.56
12172;BME280;6149;52.418;13.668;2023-01-31T02:39:34;101037.94;;;3.52;98.08
12172;BME280;6149;52.418;13.668;2023-01-31T02:42:12;101054.34;;;3.60;98.42
12172;BME280;6149;52.418;13.668;2023-01-31T02:44:48;101042.09;;;3.63;98.22
12172;BME280;6149;52.418;13.668;2023-01-31T02:47:32;101056.03;;;3.64;97.83
12172;BME280;6149;52.418;13.668;2023-01-31T02:50:19;101074.97;;;3.75;97.87
12172;BME280;6149;52.418;13.668;2023-01-31T02:52:55;101068.09;;;3.71;95.92
12172;BME280;6149;52.418;13.668;2023-01-31T02:55:27;101061.16;;;3.70;96.14
12172;BME280;6149;52.418;13.668;2023-01-31T02:58:15;101063.78;;;3.68;96.50
12172;BME280;6149;52.418;13.668;2023-01-31T03:00:44;101064.69;;;3.67;96.83
12172;BME280;6149;52.418;13.668;2023-01-31T03:03:18;101069.69;;;3.78;96.99
12172;BME280;6149;52.418;13.668;2023-01-31T03:09:36;101057.69;;;3.68;97.54
12172;BME280;6149;52.418;13.668;2023-01-31T03:12:19;101071.84;;;3.56;98.15
12172;BME280;6149;52.418;13.668;2023-01-31T03:15:07;101070.16;;;3.52;98.31
12172;BME280;6149;52.418;13.668;2023-01-31T03:17:50;101074.56;;;3.50;97.35
12172;BME280;6149;52.418;13.668;2023-01-31T03:20:26;101079.81;;;3.49;97.85
12172;BME280;6149;52.418;13.668;2023-01-31T03:22:57;101079.72;;;3.53;98.77
12172;BME280;6149;52.418;13.668;2023-01-31T03:25:31;101082.47;;;3.46;99.32
12172;BME280;6149;52.418;13.668;2023-01-31T03:28:02;101086.19;;;3.32;99.64
12172;BME280;6149;52.418;13.668;2023-01-31T03:30:35;101089.53;;;3.39;99.16
12172;BME280;6149;52.418;13.668;2023-01-31T03:33:09;101094.75;;;3.41;100.00
12172;BME280;6149;52.418;13.668;2023-01-31T03:35:41;101094.75;;;3.41;99.27
12172;BME280;6149;52.418;13.668;2023-01-31T03:38:16;101103.50;;;3.38;100.00
12172;BME280;6149;52.418;13.668;2023-01-31T03:40:50;101117.53;;;3.32;100.00
12172;BME280;6149;52.418;13.668;2023-01-31T03:43:30;101113.28;;;3.25;100.00
12172;BME280;6149;52.418;13.668;2023-01-31T03:46:00;101116.75;;;3.27;100.00
12172;BME280;6149;52.418;13.668;2023-01-31T03:48:32;101106.19;;;3.33;100.00
12172;BME280;6149;52.418;13.668;2023-01-31T03:51:05;101120.31;;;3.22;100.00
12172;BME280;6149;52.418;13.668;2023-01-31T03:53:37;101124.69;;;3.20;100.00
12172;BME280;6149;52.418;13.668;2023-01-31T03:56:12;101124.72;;;3.18;100.00
12172;BME280;6149;52.418;13.668;2023-01-31T03:58:44;101129.16;;;3.12;100.00
12172;BME280;6149;52.418;13.668;2023-01-31T04:01:16;101127.44;;;3.09;100.00
12172;BME280;6149;52.418;13.668;2023-01-31T04:03:45;101130.13;;;3.05;100.00
12172;BME280;6149;52.418;13.668;2023-01-31T04:06:16;101127.50;;;3.06;100.00
12172;BME280;6149;52.418;13.668;2023-01-31T04:08:42;101132.03;;;2.93;100.00
12172;BME280;6149;52.418;13.668;2023-01-31T04:11:12;101138.16;;;2.92;100.00
12172;BME280;6149;52.418;13.668;2023-01-31T04:13:40;101139.09;;;2.87;100.00
12172;BME280;6149;52.418;13.668;2023-01-31T04:16:07;101135.56;;;2.91;100.00
12172;BME280;6149;52.418;13.668;2023-01-31T04:18:34;101126.94;;;2.84;100.00
12172;BME280;6149;52.418;13.668;2023-01-31T04:21:00;101139.09;;;2.85;100.00
12172;BME280;6149;52.418;13.668;2023-01-31T04:23:27;101125.19;;;2.85;100.00
12172;BME280;6149;52.418;13.668;2023-01-31T04:25:54;101137.34;;;2.86;100.00
12172;BME280;6149;52.418;13.668;2023-01-31T04:28:22;101133.03;;;2.85;100.00
12172;BME280;6149;52.418;13.668;2023-01-31T04:30:51;101129.59;;;2.80;100.00
12172;BME280;6149;52.418;13.668;2023-01-31T04:33:18;101137.44;;;2.80;100.00
12172;BME280;6149;52.418;13.668;2023-01-31T04:35:45;101143.56;;;2.76;100.00
12172;BME280;6149;52.418;13.668;2023-01-31T04:38:12;101140.25;;;2.63;100.00
12172;BME280;6149;52.418;13.668;2023-01-31T04:40:38;101140.25;;;2.63;100.00
12172;BME280;6149;52.418;13.668;2023-01-31T04:43:05;101143.91;;;2.50;100.00
12172;BME280;6149;52.418;13.668;2023-01-31T04:45:33;101153.50;;;2.46;100.00
12172;BME280;6149;52.418;13.668;2023-01-31T04:47:59;101146.47;;;2.53;100.00
12172;BME280;6149;52.418;13.668;2023-01-31T04:50:26;101155.19;;;2.52;100.00
12172;BME280;6149;52.418;13.668;2023-01-31T04:52:52;101154.34;;;2.50;100.00
12172;BME280;6149;52.418;13.668;2023-01-31T04:55:20;101176.88;;;2.58;100.00
12172;BME280;6149;52.418;13.668;2023-01-31T04:57:47;101177.75;;;2.56;100.00
12172;BME280;6149;52.418;13.668;2023-01-31T05:00:14;101173.44;;;2.53;100.00
12172;BME280;6149;52.418;13.668;2023-01-31T05:02:42;101173.50;;;2.49;100.00
12172;BME280;6149;52.418;13.668;2023-01-31T05:05:09;101176.91;;;2.54;100.00
12172;BME280;6149;52.418;13.668;2023-01-31T05:07:37;101193.50;;;2.48;100.00
12172;BME280;6149;52.418;13.668;2023-01-31T05:10:04;101196.13;;;2.45;100.00
12172;BME280;6149;52.418;13.668;2023-01-31T05:12:31;101192.66;;;2.45;100.00
12172;BME280;6149;52.418;13.668;2023-01-31T05:14:58;101191.81;;;2.43;100.00
12172;BME280;6149;52.418;13.668;2023-01-31T05:17:26;101181.38;;;2.43;100.00
12172;BME280;6149;52.418;13.668;2023-01-31T05:19:55;101177.00;;;2.45;100.00
12172;BME280;6149;52.418;13.668;2023-01-31T05:22:21;101176.97;;;2.48;100.00
12172;BME280;6149;52.418;13.668;2023-01-31T05:24:49;101178.75;;;2.44;100.00
12172;BME280;6149;52.418;13.668;2023-01-31T05:27:16;101186.47;;;2.56;100.00
12172;BME280;6149;52.418;13.668;2023-01-31T05:29:42;101178.75;;;2.44;100.00
12172;BME280;6149;52.418;13.668;2023-01-31T05:32:10;101178.81;;;2.38;100.00
12172;BME280;6149;52.418;13.668;2023-01-31T05:34:37;101178.78;;;2.43;100.00
12172;BME280;6149;52.418;13.668;2023-01-31T05:37:05;101177.06;;;2.40;100.00
12172;BME280;6149;52.418;13.668;2023-01-31T05:39:32;101171.81;;;2.42;100.00
12172;BME280;6149;52.418;13.668;2023-01-31T05:41:59;101174.47;;;2.39;100.00
12172;BME280;6149;52.418;13.668;2023-01-31T05:44:26;101180.56;;;2.36;100.00
12172;BME280;6149;52.418;13.668;2023-01-31T05:46:54;101181.38;;;2.43;100.00
12172;BME280;6149;52.418;13.668;2023-01-31T05:49:21;101185.75;;;2.39;100.00
12172;BME280;6149;52.418;13.668;2023-01-31T05:51:47;101180.44;;;2.50;100.00
12172;BME280;6149;52.418;13.668;2023-01-31T05:54:15;101190.84;;;2.53;100.00
12172;BME280;6149;52.418;13.668;2023-01-31T05:56:42;101182.16;;;2.51;100.00
12172;BME280;6149;52.418;13.668;2023-01-31T05:59:08;101195.22;;;2.49;100.00
12172;BME280;6149;52.418;13.668;2023-01-31T06:01:35;101189.94;;;2.55;100.00
12172;BME280;6149;52.418;13.668;2023-01-31T06:04:01;101189.00;;;2.61;100.00
12172;BME280;6149;52.418;13.668;2023-01-31T06:06:28;101202.94;;;2.60;100.00
12172;BME280;6149;52.418;13.668;2023-01-31T06:08:54;101207.25;;;2.62;100.00
12172;BME280;6149;52.418;13.668;2023-01-31T06:11:22;101200.28;;;2.63;100.00
12172;BME280;6149;52.418;13.668;2023-01-31T06:13:49;101204.56;;;2.70;100.00
12172;BME280;6149;52.418;13.668;2023-01-31T06:16:16;101193.09;;;2.85;100.00
12172;BME280;6149;52.418;13.668;2023-01-31T06:18:42;101196.63;;;2.79;100.00
12172;BME280;6149;52.418;13.668;2023-01-31T06:21:09;101198.25;;;2.89;100.00
12172;BME280;6149;52.418;13.668;2023-01-31T06:23:36;101203.56;;;2.80;100.00
12172;BME280;6149;52.418;13.668;2023-01-31T06:26:03;101207.03;;;2.82;100.00
12172;BME280;6149;52.418;13.668;2023-01-31T06:28:31;101205.16;;;2.93;100.00
12172;BME280;6149;52.418;13.668;2023-01-31T06:30:58;101201.47;;;3.10;100.00
12172;BME280;6149;52.418;13.668;2023-01-31T06:33:24;101217.25;;;3.00;100.00
12172;BME280;6149;52.418;13.668;2023-01-31T06:35:51;101213.72;;;3.05;100.00
12172;BME280;6149;52.418;13.668;2023-01-31T06:38:17;101210.22;;;3.06;100.00
12172;BME280;6149;52.418;13.668;2023-01-31T06:40:44;101212.78;;;3.09;100.00
12172;BME280;6149;52.418;13.668;2023-01-31T06:43:10;101217.19;;;3.07;100.00
12172;BME280;6149;52.418;13.668;2023-01-31T06:45:41;101213.53;;;3.20;100.00
12172;BME280;6149;52.418;13.668;2023-01-31T06:48:08;101223.97;;;3.20;100.00
12172;BME280;6149;52.418;13.668;2023-01-31T06:50:34;101221.22;;;3.30;100.00
12172;BME280;6149;52.418;13.668;2023-01-31T06:53:01;101223.13;;;3.19;100.00
12172;BME280;6149;52.418;13.668;2023-01-31T06:55:27;101219.53;;;3.28;100.00
12172;BME280;6149;52.418;13.668;2023-01-31T06:57:54;101226.53;;;3.26;100.00
12172;BME280;6149;52.418;13.668;2023-01-31T07:00:21;101218.53;;;3.35;100.00
12172;BME280;6149;52.418;13.668;2023-01-31T07:02:52;101224.56;;;3.40;100.00
12172;BME280;6149;52.418;13.668;2023-01-31T07:05:19;101225.41;;;3.42;100.00
12172;BME280;6149;52.418;13.668;2023-01-31T07:07:46;101238.56;;;3.34;100.00
12172;BME280;6149;52.418;13.668;2023-01-31T07:10:15;101241.13;;;3.41;100.00
12172;BME280;6149;52.418;13.668;2023-01-31T07:12:42;101232.47;;;3.35;100.00
12172;BME280;6149;52.418;13.668;2023-01-31T07:15:09;101230.56;;;3.47;100.00
12172;BME280;6149;52.418;13.668;2023-01-31T07:17:36;101239.31;;;3.44;100.00
12172;BME280;6149;52.418;13.668;2023-01-31T07:20:05;101222.69;;;3.50;100.00
12172;BME280;6149;52.418;13.668;2023-01-31T07:22:33;101227.06;;;3.49;100.00
12172;BME280;6149;52.418;13.668;2023-01-31T07:24:59;101231.41;;;3.50;100.00
12172;BME280;6149;52.418;13.668;2023-01-31T07:27:26;101232.25;;;3.51;100.00
12172;BME280;6149;52.418;13.668;2023-01-31T07:29:52;101227.94;;;3.50;100.00
12172;BME280;6149;52.418;13.668;2023-01-31T07:32:19;101220.06;;;3.50;100.00
12172;BME280;6149;52.418;13.668;2023-01-31T07:34:45;101222.69;;;3.51;100.00
12172;BME280;6149;52.418;13.668;2023-01-31T07:37:14;101220.84;;;3.56;100.00
12172;BME280;6149;52.418;13.668;2023-01-31T07:39:40;101208.53;;;3.64;100.00
12172;BME280;6149;52.418;13.668;2023-01-31T07:42:07;101203.44;;;3.57;100.00
12172;BME280;6149;52.418;13.668;2023-01-31T07:44:33;101211.16;;;3.64;100.00
12172;BME280;6149;52.418;13.668;2023-01-31T07:47:00;101228.63;;;3.61;100.00
12172;BME280;6149;52.418;13.668;2023-01-31T07:49:26;101230.34;;;3.63;100.00
12172;BME280;6149;52.418;13.668;2023-01-31T07:51:53;101229.47;;;3.63;100.00
12172;BME280;6149;52.418;13.668;2023-01-31T07:54:21;101239.94;;;3.64;100.00
12172;BME280;6149;52.418;13.668;2023-01-31T07:56:47;101241.69;;;3.62;100.00
12172;BME280;6149;52.418;13.668;2023-01-31T07:59:14;101239.00;;;3.68;100.00
12172;BME280;6149;52.418;13.668;2023-01-31T08:01:41;101230.13;;;3.77;100.00
12172;BME280;6149;52.418;13.668;2023-01-31T08:04:25;101238.09;;;3.71;100.00
12172;BME280;6149;52.418;13.668;2023-01-31T08:06:53;101241.53;;;3.72;100.00
12172;BME280;6149;52.418;13.668;2023-01-31T08:09:22;101222.16;;;3.85;100.00
12172;BME280;6149;52.418;13.668;2023-01-31T08:11:49;101230.16;;;3.76;100.00
12172;BME280;6149;52.418;13.668;2023-01-31T08:14:17;101236.19;;;3.79;100.00
12172;BME280;6149;52.418;13.668;2023-01-31T08:16:47;101224.75;;;3.86;100.00
12172;BME280;6149;52.418;13.668;2023-01-31T08:19:14;101226.50;;;3.86;100.00
12172;BME280;6149;52.418;13.668;2023-01-31T08:21:40;101222.31;;;3.76;100.00
12172;BME280;6149;52.418;13.668;2023-01-31T08:24:08;101225.75;;;3.78;100.00
12172;BME280;6149;52.418;13.668;2023-01-31T08:26:38;101230.06;;;3.82;100.00
12172;BME280;6149;52.418;13.668;2023-01-31T08:29:07;101226.31;;;3.98;100.00
12172;BME280;6149;52.418;13.668;2023-01-31T08:31:33;101223.72;;;3.96;100.00
12172;BME280;6149;52.418;13.668;2023-01-31T08:34:00;101218.50;;;3.96;100.00
12172;BME280;6149;52.418;13.668;2023-01-31T08:36:29;101213.28;;;3.96;100.00
12172;BME280;6149;52.418;13.668;2023-01-31T08:38:56;101216.75;;;3.97;100.00
12172;BME280;6149;52.418;13.668;2023-01-31T08:41:24;101211.41;;;4.03;100.00
12172;BME280;6149;52.418;13.668;2023-01-31T08:43:53;101210.66;;;3.96;100.00
12172;BME280;6149;52.418;13.668;2023-01-31T08:46:21;101214.13;;;3.97;100.00
12172;BME280;6149;52.418;13.668;2023-01-31T08:48:48;101211.69;;;3.86;100.00
12172;BME280;6149;52.418;13.668;2023-01-31T08:51:14;101214.94;;;4.00;100.00
12172;BME280;6149;52.418;13.668;2023-01-31T08:53:42;101217.72;;;3.90;100.00
12172;BME280;6149;52.418;13.668;2023-01-31T08:56:10;101215.03;;;3.96;100.00
12172;BME280;6149;52.418;13.668;2023-01-31T08:58:39;101208.00;;;3.98;100.00
12172;BME280;6149;52.418;13.668;2023-01-31T09:01:09;101199.41;;;3.91;100.00
12172;BME280;6149;52.418;13.668;2023-01-31T09:03:38;101202.94;;;3.87;100.00
12172;BME280;6149;52.418;13.668;2023-01-31T09:06:06;101202.03;;;3.90;100.00
12172;BME280;6149;52.418;13.668;2023-01-31T09:08:35;101200.22;;;3.95;100.00
12172;BME280;6149;52.418;13.668;2023-01-31T09:11:02;101193.94;;;4.05;100.00
12172;BME280;6149;52.418;13.668;2023-01-31T09:13:29;101187.97;;;3.97;100.00
12172;BME280;6149;52.418;13.668;2023-01-31T09:15:57;101189.66;;;3.99;100.00
12172;BME280;6149;52.418;13.668;2023-01-31T09:18:25;101178.09;;;4.13;100.00
12172;BME280;6149;52.418;13.668;2023-01-31T09:20:52;101176.38;;;4.10;100.00
12172;BME280;6149;52.418;13.668;2023-01-31T09:23:19;101178.19;;;4.08;100.00
12172;BME280;6149;52.418;13.668;2023-01-31T09:25:51;101165.06;;;4.10;100.00
12172;BME280;6149;52.418;13.668;2023-01-31T09:28:19;101167.63;;;4.13;100.00
12172;BME280;6149;52.418;13.668;2023-01-31T09:30:46;101169.19;;;4.23;100.00
12172;BME280;6149;52.418;13.668;2023-01-31T09:33:13;101170.00;;;4.26;100.00
12172;BME280;6149;52.418;13.668;2023-01-31T09:35:41;101161.38;;;4.21;100.00
12172;BME280;6149;52.418;13.668;2023-01-31T09:38:08;101165.78;;;4.18;100.00
12172;BME280;6149;52.418;13.668;2023-01-31T09:40:37;101172.78;;;4.17;100.00
12172;BME280;6149;52.418;13.668;2023-01-31T09:43:05;101161.38;;;4.21;100.00
12172;BME280;6149;52.418;13.668;2023-01-31T09:45:36;101156.13;;;4.21;100.00
12172;BME280;6149;52.418;13.668;2023-01-31T09:48:09;101152.69;;;4.19;100.00
12172;BME280;6149;52.418;13.668;2023-01-31T09:50:51;101153.34;;;4.30;100.00
12172;BME280;6149;52.418;13.668;2023-01-31T09:53:21;101155.09;;;4.30;100.00
12172;BME280;6149;52.418;13.668;2023-01-31T09:55:55;101148.94;;;4.32;100.00
12172;BME280;6149;52.418;13.668;2023-01-31T09:58:30;101139.34;;;4.33;100.00
12172;BME280;6149;52.418;13.668;2023-01-31T10:01:06;101137.41;;;4.43;100.00
12172;BME280;6149;52.418;13.668;2023-01-31T10:03:47;101126.06;;;4.44;100.00
12172;BME280;6149;52.418;13.668;2023-01-31T10:06:23;101121.47;;;4.53;100.00
12172;BME280;6149;52.418;13.668;2023-01-31T10:08:55;101130.09;;;4.58;100.00
12172;BME280;6149;52.418;13.668;2023-01-31T10:11:30;101119.75;;;4.52;100.00
12172;BME280;6149;52.418;13.668;2023-01-31T10:14:05;101114.44;;;4.55;100.00
12172;BME280;6149;52.418;13.668;2023-01-31T10:16:52;101113.53;;;4.58;100.00
12172;BME280;6149;52.418;13.668;2023-01-31T10:19:27;101105.44;;;4.70;100.00
12172;BME280;6149;52.418;13.668;2023-01-31T10:22:03;101106.25;;;4.72;100.00
12172;BME280;6149;52.418;13.668;2023-01-31T10:24:37;101099.22;;;4.74;100.00
12172;BME280;6149;52.418;13.668;2023-01-31T10:27:11;101095.59;;;4.81;100.00
12172;BME280;6149;52.418;13.668;2023-01-31T10:29:44;101094.69;;;4.82;100.00
12172;BME280;6149;52.418;13.668;2023-01-31T10:32:20;101079.88;;;4.81;100.00
12172;BME280;6149;52.418;13.668;2023-01-31T10:34:55;101077.91;;;4.89;100.00
12172;BME280;6149;52.418;13.668;2023-01-31T10:37:31;101082.16;;;4.95;100.00
12172;BME280;6149;52.418;13.668;2023-01-31T10:40:04;101080.31;;;5.00;100.00
12172;BME280;6149;52.418;13.668;2023-01-31T10:42:33;101072.47;;;4.98;100.00
12172;BME280;6149;52.418;13.668;2023-01-31T10:45:05;101067.97;;;5.05;100.00
12172;BME280;6149;52.418;13.668;2023-01-31T10:47:45;101059.50;;;4.92;100.00
12172;BME280;6149;52.418;13.668;2023-01-31T10:50:16;101052.44;;;4.96;100.00
12172;BME280;6149;52.418;13.668;2023-01-31T10:52:52;101054.31;;;4.91;100.00
12172;BME280;6149;52.418;13.668;2023-01-31T10:55:42;101054.34;;;4.89;100.00
12172;BME280;6149;52.418;13.668;2023-01-31T10:58:17;101054.38;;;4.88;100.00
12172;BME280;6149;52.418;13.668;2023-01-31T11:00:46;101050.94;;;4.86;100.00
12172;BME280;6149;52.418;13.668;2023-01-31T11:03:14;101043.97;;;4.85;100.00
12172;BME280;6149;52.418;13.668;2023-01-31T11:05:45;101038.03;;;4.78;100.00
12172;BME280;6149;52.418;13.668;2023-01-31T11:08:28;101029.13;;;4.84;100.00
12172;BME280;6149;52.418;13.668;2023-01-31T11:11:05;101025.59;;;4.86;100.00
12172;BME280;6149;52.418;13.668;2023-01-31T11:13:33;101016.91;;;4.84;100.00
12172;BME280;6149;52.418;13.668;2023-01-31T11:16:00;101014.97;;;4.92;100.00
12172;BME280;6149;52.418;13.668;2023-01-31T11:18:30;101006.03;;;5.01;100.00
12172;BME280;6149;52.418;13.668;2023-01-31T11:21:00;100994.56;;;5.07;100.00
12172;BME280;6149;52.418;13.668;2023-01-31T11:23:31;100994.59;;;5.05;100.00
12172;BME280;6149;52.418;13.668;2023-01-31T11:25:59;100986.69;;;5.07;100.00
12172;BME280;6149;52.418;13.668;2023-01-31T11:28:33;100984.91;;;5.09;100.00
12172;BME280;6149;52.418;13.668;2023-01-31T11:31:03;100973.56;;;5.08;100.00
12172;BME280;6149;52.418;13.668;2023-01-31T11:33:42;100970.03;;;5.09;100.00
12172;BME280;6149;52.418;13.668;2023-01-31T11:36:13;100961.19;;;5.13;100.00
12172;BME280;6149;52.418;13.668;2023-01-31T11:38:42;100957.78;;;5.10;100.00
12172;BME280;6149;52.418;13.668;2023-01-31T11:41:30;100950.81;;;5.09;100.00
12172;BME280;6149;52.418;13.668;2023-01-31T11:44:11;100955.16;;;5.10;100.00
12172;BME280;6149;52.418;13.668;2023-01-31T11:46:43;100948.72;;;4.87;100.00
12172;BME280;6149;52.418;13.668;2023-01-31T11:49:19;100944.25;;;4.91;100.00
12172;BME280;6149;52.418;13.668;2023-01-31T11:51:49;100938.13;;;4.92;100.00
12172;BME280;6149;52.418;13.668;2023-01-31T11:54:20;100928.53;;;4.91;100.00
12172;BME280;6149;52.418;13.668;2023-01-31T11:56:50;100922.59;;;4.84;100.00
12172;BME280;6149;52.418;13.668;2023-01-31T11:59:19;100913.97;;;4.81;100.00
12172;BME280;6149;52.418;13.668;2023-01-31T12:01:50;100916.88;;;4.68;100.00
12172;BME280;6149;52.418;13.668;2023-01-31T12:04:21;100907.53;;;4.57;100.00
12172;BME280;6149;52.418;13.668;2023-01-31T12:07:01;100894.59;;;4.51;100.00
12172;BME280;6149;52.418;13.668;2023-01-31T12:09:41;100891.03;;;4.53;100.00
12172;BME280;6149;52.418;13.668;2023-01-31T12:12:27;100884.88;;;4.56;100.00
12172;BME280;6149;52.418;13.668;2023-01-31T12:14:59;100879.06;;;4.45;100.00
12172;BME280;6149;52.418;13.668;2023-01-31T12:17:28;100865.75;;;4.52;100.00
12172;BME280;6149;52.418;13.668;2023-01-31T12:22:50;100843.78;;;4.59;100.00
12172;BME280;6149;52.418;13.668;2023-01-31T12:25:30;100836.06;;;4.53;100.00
12172;BME280;6149;52.418;13.668;2023-01-31T12:28:13;100834.41;;;4.49;100.00
12172;BME280;6149;52.418;13.668;2023-01-31T12:31:00;100834.41;;;4.49;100.00
12172;BME280;6149;52.418;13.668;2023-01-31T12:33:47;100823.88;;;4.52;100.00
12172;BME280;6149;52.418;13.668;2023-01-31T12:36:33;100821.88;;;4.62;100.00
12172;BME280;6149;52.418;13.668;2023-01-31T12:39:26;100808.03;;;4.57;100.00
12172;BME280;6149;52.418;13.668;2023-01-31T12:42:13;100804.69;;;4.52;100.00
12172;BME280;6149;52.418;13.668;2023-01-31T12:44:50;100812.59;;;4.49;100.00
12172;BME280;6149;52.418;13.668;2023-01-31T12:47:39;100801.22;;;4.50;100.00
12172;BME280;6149;52.418;13.668;2023-01-31T12:50:30;100795.28;;;4.45;100.00
12172;BME280;6149;52.418;13.668;2023-01-31T12:53:28;100786.63;;;4.41;100.00
12172;BME280;6149;52.418;13.668;2023-01-31T12:56:14;100790.03;;;4.45;100.00
12172;BME280;6149;52.418;13.668;2023-01-31T12:58:52;100794.19;;;4.52;100.00
12172;BME280;6149;52.418;13.668;2023-01-31T13:01:33;100780.47;;;4.44;100.00
12172;BME280;6149;52.418;13.668;2023-01-31T13:04:21;100773.69;;;4.35;100.00
12172;BME280;6149;52.418;13.668;2023-01-31T13:06:58;100776.16;;;4.41;100.00
12172;BME280;6149;52.418;13.668;2023-01-31T13:09:30;100780.84;;;4.28;100.00
12172;BME280;6149;52.418;13.668;2023-01-31T13:12:03;100766.09;;;4.24;100.00
12172;BME280;6149;52.418;13.668;2023-01-31T13:14:36;100768.75;;;4.23;100.00
12172;BME280;6149;52.418;13.668;2023-01-31T13:17:07;100757.56;;;4.16;100.00
12172;BME280;6149;52.418;13.668;2023-01-31T13:19:40;100749.88;;;4.10;100.00